Poplar Flat, Kentucky
Current Conditions -  °F | °C
As of 8:35 PM on Thursday 27 Nov 2014 (Local Time) from KFGX Reporting Station
Overcast Overcast  
Wind Chill: 22°   Ceiling: 4200
Heat Index: 29°   Visibility: 10mi
Dew Point: 25°   Wind: 7mph
Humidity: 84%   Direction: 280°W
Pressure: 30.38"   Gusts: NA
Location:  38.5845°N, 83.5468°W
Report Text: KFGX 280135Z AUTO 28006KT 10SM BKN042 OVC049 M01/M04 A3038 RMK AO2 T10151039
Loading
Personal Weather Stations






























Interactive Weather Map New forecast layout! Learn more

10-Day Weather Forecast

Advertisements
Track Severe Weather on mobile